• Join FlightAware (Why Join?)
  • Login
  • US Flag 
07:27PM EDT


 

Airport Tracker/Info


-or-


 

Live Flight TrackerFlight Track Log ✈ AWE2690 ✈ 07-Sep-2013 ✈ KORF - KCLT

Flight Track Log - Related Links

Times and Time Zones

All times are in EDT time to prevent confusion due to time zone crossing. See the AWE2690 flight status page for this flight to view local times or setup timezone preferences in your user account.

Time Position Orientation Groundspeed Altitude Reporting Facility
EDT Latitude Longitude Course Direction KTS MPH feet Rate Location/Type
11:23AM 36.9161 -76.1817 244° Southwest 178 205 1,300  Level Washington Center
11:24AM 36.9494 -76.1611 26° Northeast 211 243 2,900 1,740 Climbing Washington Center
11:25AM 36.9889 -76.2081 316° Northwest 272 313 3,900 1,860 Climbing Washington Center
11:25AM 36.9867 -76.2342 264° West 279 321 5,000 3,000 Climbing Washington Center
11:26AM 36.8009 -76.4863 253° West  Level Estimated
11:26AM 36.9781 -76.2964 260° West 294 338 6,900  Level Washington Center
11:27AM 36.7846 -76.5869 259° West  Level FlightAware Approximate
11:27AM 36.9461 -76.3872 246° West 292 336 9,800  Level Washington Center
11:28AM 36.7529 -76.6815 247° West  Level Estimated
11:28AM 36.9100 -76.4828 245° Southwest 298 343 11,800  Level Washington Center
11:29AM 36.7211 -76.7761 244° Southwest  Level Estimated
11:29AM 36.8694 -76.5914 245° Southwest 320 368 14,000  Level Washington Center
11:30AM 36.8269 -76.7025 244° Southwest 341 392 16,100 1,860 Climbing Washington Center
11:31AM 36.7839 -76.8186 245° Southwest 359 413 17,800 1,860 Climbing Washington Center
11:32AM 36.7411 -76.9319 245° Southwest 365 420 19,800 1,860 Climbing Washington Center
11:33AM 36.6939 -77.0556 245° Southwest 379 436 21,600 1,080 Climbing Washington Center
11:34AM 36.6381 -77.1761 240° Southwest 391 450 22,000 180 Climbing Washington Center
11:35AM 36.5800 -77.3017 240° Southwest 406 467 22,000  Level Washington Center
11:36AM 36.5219 -77.4219 239° Southwest 412 474 22,000  Level Washington Center
11:37AM 36.4719 -77.5344 241° Southwest 417 480 22,000  Level Washington Center
11:38AM 36.4178 -77.6542 241° Southwest 412 474 22,000  Level Washington Center
11:39AM 36.3594 -77.7767 239° Southwest 412 474 22,000  Level Washington Center
11:40AM 36.3008 -77.8986 239° Southwest 417 480 22,000  Level Washington Center
11:41AM 36.2419 -78.0231 240° Southwest 417 480 22,000  Level Washington Center
11:42AM 36.1831 -78.1447 239° Southwest 417 480 22,000  Level Washington Center
11:43AM 36.1242 -78.2689 240° Southwest 417 480 22,000  Level Washington Center
11:44AM 36.0669 -78.3903 240° Southwest 417 480 22,000  Level Washington Center
11:45AM 36.0011 -78.5267 239° Southwest 417 480 22,000  Level Washington Center
11:46AM 35.9419 -78.6450 238° Southwest 417 480 22,000  Level Washington Center
11:47AM 35.8844 -78.7683 240° Southwest 412 474 22,000  Level Washington Center
11:48AM 35.8661 -78.9011 260° West 400 460 22,000  Level Washington Center
11:49AM 35.8561 -79.0389 265° West 400 460 22,000  Level Washington Center
11:51AM 35.8350 -79.2900 264° West 398 458 22,000 -600 Level Atlanta Center
11:52AM 35.8256 -79.4286 265° West 398 458 20,300 -2,160 Descending Atlanta Center
11:53AM 35.8161 -79.5675 265° West 408 470 17,700 -1,680 Descending Atlanta Center
11:54AM 35.8106 -79.7011 267° West 408 470 17,000 -360 Descending Atlanta Center
11:55AM 35.8108 -79.8317 270° West 403 464 17,000  Level Atlanta Center
11:56AM 35.8108 -79.9519 270° West 403 464 17,000  Level Atlanta Center
11:56AM 35.8133 -80.0311 272° West 385 443 17,000 -540 Level Atlanta Center
11:57AM 35.8122 -80.1233 269° West 387 445 16,400 -1,200 Descending Atlanta Center
11:58AM 35.8108 -80.2106 269° West 391 450 15,200 -1,380 Descending Atlanta Center
11:58AM 35.8103 -80.2567 269° West 351 404 15,000 -300 Descending Atlanta Center
11:59AM 35.8103 -80.3258 270° West 358 412 14,900 -540 Descending Atlanta Center
11:59AM 35.8133 -80.3642 276° West 312 359 14,500 -1,440 Descending Atlanta Center
12:00PM 35.8008 -80.4336 258° West 338 389 13,500 -1,380 Descending Atlanta Center
12:00PM 35.7808 -80.4628 230° Southwest 310 357 13,100 -1,440 Descending Atlanta Center
12:01PM 35.7383 -80.5031 218° Southwest 299 344 12,100 -1,680 Descending Atlanta Center
12:01PM 35.7206 -80.5447 242° Southwest 302 348 11,400 -1,140 Descending Atlanta Center
12:02PM 35.6992 -80.5942 242° Southwest 299 344 11,000 -900 Descending Atlanta Center
12:02PM 35.6833 -80.6308 242° Southwest 287 330 10,500 -2,100 Descending Atlanta Center
12:03PM 35.6681 -80.6825 250° West 289 333 8,900 -2,580 Descending Atlanta Center
12:03PM 35.6586 -80.7186 252° West 276 318 7,900 -2,640 Descending Atlanta Center
12:04PM 35.6394 -80.7808 249° West 284 327 6,300 -2,460 Descending Atlanta Center
12:04PM 35.6342 -80.8117 258° West 280 322 5,400 -2,220 Descending Atlanta Center
12:05PM 35.6189 -80.8708 252° West 278 320 4,100 -1,380 Descending Atlanta Center
12:05PM 35.6028 -80.8944 230° Southwest 252 290 4,000 -120 Descending Atlanta Center
12:06PM 35.5706 -80.9317 223° Southwest 258 297 4,000  Level Atlanta Center
12:06PM 35.5478 -80.9425 201° Southwest 250 288 4,000  Level Atlanta Center
12:07PM 35.4900 -80.9628 196° South 191 220 4,000  Level Atlanta Center
12:08PM 35.4417 -80.9594 177° South 169 194 4,000 -60 Level Atlanta Center
12:09PM 35.3894 -80.9536 175° South 185 213 3,900 -600 Descending Atlanta Center
12:10PM 35.3350 -80.9456 173° South 188 216 2,800 -960 Descending Atlanta Center
12:11PM 35.2892 -80.9447 179° South 164 189 2,000 -780 Descending Atlanta Center
12:12PM 35.2494 -80.9411 176° South 142 163 1,300 -720 Descending Atlanta Center